Time;durP1;ratioP1;P1;durP2;ratioP2;P2;SDS_P1;SDS_P2;PMS_P1;PMS_P2;Temp;Humidity;BMP_temperature;BMP_pressure;BME280_temperature;BME280_humidity;BME280_pressure;Samples;Min_cycle;Max_cycle;Signal;HPM_P1;HPM_P2
2023/03/31 03:01:13;;;;;;;47.13;44.30;;;10.90;99.90;;;;;;5634924;23;20331;-77
2023/03/31 03:03:55;;;;;;;33.03;30.87;;;10.80;99.90;;;;;;4935909;29;20186;-77
2023/03/31 03:06:52;;;;;;;49.07;45.73;;;10.80;99.90;;;;;;4919216;29;20190;-77
2023/03/31 03:09:39;;;;;;;24.67;23.10;;;10.70;99.90;;;;;;4935952;29;20213;-77
2023/03/31 03:12:24;;;;;;;8.43;7.63;;;10.70;99.90;;;;;;4904665;29;20305;-77
2023/03/31 03:15:23;;;;;;;5.40;4.87;;;10.70;99.90;;;;;;4901402;29;20195;-77
2023/03/31 03:17:50;;;;;;;5.83;4.83;;;10.60;99.90;;;;;;4901013;29;20183;-77
2023/03/31 03:20:19;;;;;;;10.53;5.73;;;10.60;99.90;;;;;;4902478;29;20543;-77
2023/03/31 03:22:45;;;;;;;5.10;4.60;;;10.50;99.90;;;;;;4924388;29;20215;-77
2023/03/31 03:25:13;;;;;;;11.53;7.47;;;10.60;99.90;;;;;;4924297;29;20190;-76
2023/03/31 03:27:39;;;;;;;6.83;5.30;;;10.50;99.90;;;;;;4903043;29;20279;-77
2023/03/31 03:30:08;;;;;;;10.47;6.07;;;10.50;99.90;;;;;;4922615;29;20183;-77
2023/03/31 03:32:34;;;;;;;18.70;17.67;;;10.50;99.90;;;;;;4905977;29;20765;-77
2023/03/31 03:35:01;;;;;;;18.77;17.67;;;10.50;99.90;;;;;;4919075;29;20308;-77
2023/03/31 03:37:27;;;;;;;19.40;17.93;;;10.50;99.90;;;;;;4902359;29;20178;-77
2023/03/31 03:39:54;;;;;;;16.37;15.27;;;10.50;99.90;;;;;;4905028;29;20186;-76
2023/03/31 03:42:20;;;;;;;16.43;15.17;;;10.50;99.90;;;;;;4924718;29;20287;-76
2023/03/31 03:44:46;;;;;;;13.30;12.20;;;10.40;99.90;;;;;;4923297;29;20198;-76
2023/03/31 03:47:12;;;;;;;7.97;6.90;;;10.40;99.90;;;;;;4921566;29;20331;-78
2023/03/31 03:49:38;;;;;;;9.37;5.23;;;10.40;99.90;;;;;;4902605;29;20194;-78
2023/03/31 03:52:04;;;;;;;6.30;5.10;;;10.30;99.90;;;;;;4919424;29;20440;-78
2023/03/31 03:54:30;;;;;;;11.57;10.40;;;10.40;99.90;;;;;;4922527;29;20655;-79
2023/03/31 03:56:55;;;;;;;16.27;14.87;;;10.40;99.90;;;;;;4929613;29;20189;-78
2023/03/31 03:59:21;;;;;;;15.53;14.53;;;10.40;99.90;;;;;;4933080;29;20194;-78
2023/03/31 04:01:47;;;;;;;18.30;16.87;;;10.40;99.90;;;;;;4908603;29;20225;-79
2023/03/31 04:04:13;;;;;;;14.10;13.17;;;10.40;99.90;;;;;;4904381;29;20191;-79
2023/03/31 04:06:39;;;;;;;6.07;5.43;;;10.40;99.90;;;;;;4908739;29;20235;-78
2023/03/31 04:09:05;;;;;;;14.60;8.80;;;10.40;99.90;;;;;;4912265;29;20187;-79
2023/03/31 04:11:31;;;;;;;27.37;25.43;;;10.40;99.90;;;;;;4906084;29;20211;-77
2023/03/31 04:13:57;;;;;;;32.87;30.73;;;10.50;99.90;;;;;;4926231;29;20262;-79
2023/03/31 04:16:24;;;;;;;47.27;44.70;;;10.50;99.90;;;;;;4901185;29;20183;-79
2023/03/31 04:18:51;;;;;;;57.43;54.10;;;10.50;99.90;;;;;;4900829;29;20215;-77
2023/03/31 04:21:23;;;;;;;56.40;53.27;;;10.50;99.90;;;;;;4918004;29;20207;-77
2023/03/31 04:24:03;;;;;;;67.43;62.57;;;10.50;99.90;;;;;;4918027;29;20195;-77
2023/03/31 04:26:42;;;;;;;56.27;51.97;;;10.40;99.90;;;;;;4918468;29;20187;-77
2023/03/31 04:29:15;;;;;;;49.10;45.80;;;10.30;99.90;;;;;;4901923;29;20191;-77
2023/03/31 04:31:41;;;;;;;44.73;41.90;;;10.20;99.90;;;;;;4920091;29;20301;-77
2023/03/31 04:34:16;;;;;;;18.00;16.60;;;10.10;99.90;;;;;;4907131;29;20308;-77
2023/03/31 04:36:47;;;;;;;6.87;5.77;;;9.90;99.90;;;;;;4924525;29;20209;-77
2023/03/31 04:39:25;;;;;;;7.07;5.80;;;9.90;99.90;;;;;;4910341;29;20191;-77
2023/03/31 04:41:52;;;;;;;22.70;21.23;;;9.90;99.90;;;;;;4910849;29;20433;-77
2023/03/31 04:44:18;;;;;;;33.00;31.07;;;9.90;99.90;;;;;;4908461;29;20187;-78
2023/03/31 04:46:44;;;;;;;31.37;29.63;;;9.90;99.90;;;;;;4921990;29;20190;-78
2023/03/31 04:49:10;;;;;;;39.33;37.20;;;9.90;99.90;;;;;;4909464;29;20601;-77
2023/03/31 04:51:35;;;;;;;41.27;38.97;;;9.90;99.90;;;;;;4926817;29;20211;-78
2023/03/31 04:54:02;;;;;;;36.27;33.97;;;9.90;99.90;;;;;;4906037;29;20597;-77
2023/03/31 04:56:27;;;;;;;20.80;19.50;;;9.90;99.90;;;;;;4906286;29;20189;-78
2023/03/31 04:58:53;;;;;;;14.97;13.97;;;9.90;99.90;;;;;;4908328;29;20179;-78
2023/03/31 05:01:19;;;;;;;13.93;12.73;;;9.80;99.90;;;;;;4907671;29;20306;-77
2023/03/31 05:03:46;;;;;;;14.20;13.10;;;9.80;99.90;;;;;;4908300;29;20211;-77
2023/03/31 05:06:14;;;;;;;10.80;9.67;;;9.80;99.90;;;;;;4908439;29;20182;-78
2023/03/31 05:08:40;;;;;;;11.90;10.70;;;9.80;99.90;;;;;;4924197;29;20183;-78
2023/03/31 05:11:05;;;;;;;15.97;14.53;;;9.80;99.90;;;;;;4923744;29;20577;-77
2023/03/31 05:13:31;;;;;;;32.30;30.20;;;9.70;99.90;;;;;;4906528;29;20213;-78
2023/03/31 05:15:58;;;;;;;45.90;43.23;;;9.70;99.90;;;;;;4906071;29;20183;-78
2023/03/31 05:18:23;;;;;;;33.87;31.73;;;9.70;99.90;;;;;;4923908;29;20548;-78
2023/03/31 05:20:49;;;;;;;19.57;18.20;;;9.70;99.90;;;;;;4906213;29;20298;-78
2023/03/31 05:23:15;;;;;;;29.57;27.67;;;9.80;99.90;;;;;;4907144;29;20179;-77
2023/03/31 05:25:41;;;;;;;34.83;32.77;;;9.80;99.90;;;;;;4905654;29;20258;-78
2023/03/31 05:28:08;;;;;;;38.50;36.00;;;9.70;99.90;;;;;;4905730;29;20187;-78
2023/03/31 05:30:35;;;;;;;17.53;16.27;;;9.80;99.90;;;;;;4903488;29;20214;-77
2023/03/31 05:33:00;;;;;;;14.73;13.33;;;9.70;99.90;;;;;;4905946;29;20811;-77
2023/03/31 05:35:26;;;;;;;57.43;54.13;;;9.70;99.90;;;;;;4910145;29;20208;-78
2023/03/31 05:37:52;;;;;;;25.33;23.53;;;9.50;99.90;;;;;;4901960;29;20492;-77
2023/03/31 05:40:18;;;;;;;46.93;43.83;;;9.40;99.90;;;;;;4900207;29;20196;-76
2023/03/31 05:42:44;;;;;;;37.67;35.17;;;9.30;99.90;;;;;;4918440;29;20206;-77
2023/03/31 05:45:11;;;;;;;30.03;28.23;;;9.20;99.90;;;;;;4901991;29;20191;-80
2023/03/31 05:47:37;;;;;;;44.97;41.50;;;9.20;99.90;;;;;;4900671;29;20199;-77
2023/03/31 05:50:06;;;;;;;56.10;52.27;;;9.20;99.90;;;;;;4900073;29;20453;-77
2023/03/31 05:52:32;;;;;;;60.50;57.00;;;9.10;99.90;;;;;;4917100;29;20707;-76
2023/03/31 05:54:58;;;;;;;37.77;35.30;;;9.00;99.90;;;;;;4900076;29;20194;-77
2023/03/31 05:57:23;;;;;;;44.93;42.03;;;9.00;99.90;;;;;;4900648;29;20242;-77
2023/03/31 05:59:49;;;;;;;137.10;127.67;;;9.10;99.90;;;;;;4899877;29;20282;-77
2023/03/31 06:02:15;;;;;;;88.83;81.90;;;9.10;99.90;;;;;;4921711;29;20214;-77
2023/03/31 06:04:42;;;;;;;207.50;194.60;;;9.00;99.90;;;;;;4902043;29;20195;-77
2023/03/31 06:07:08;;;;;;;243.83;228.13;;;9.00;99.90;;;;;;4918366;29;20177;-77
2023/03/31 06:09:35;;;;;;;193.40;180.83;;;9.10;99.90;;;;;;4899910;29;20648;-77
2023/03/31 06:12:00;;;;;;;94.57;88.47;;;9.00;99.90;;;;;;4899981;29;20213;-77
2023/03/31 06:14:27;;;;;;;38.10;34.97;;;9.20;99.90;;;;;;4900975;29;20251;-77
2023/03/31 06:16:53;;;;;;;37.50;34.30;;;9.10;99.90;;;;;;4918388;29;20191;-77
2023/03/31 06:19:18;;;;;;;37.27;34.47;;;9.20;99.90;;;;;;4907069;29;20478;-77
2023/03/31 06:21:45;;;;;;;32.43;30.10;;;9.20;99.90;;;;;;4929267;29;20291;-77
2023/03/31 06:24:10;;;;;;;36.10;32.87;;;9.20;99.90;;;;;;4903104;29;20192;-78
2023/03/31 06:26:36;;;;;;;40.60;38.30;;;9.20;99.90;;;;;;4902249;29;20294;-77
2023/03/31 06:29:02;;;;;;;52.03;48.93;;;9.30;99.90;;;;;;4902137;29;20193;-77
2023/03/31 06:31:28;;;;;;;53.50;50.10;;;9.30;99.90;;;;;;4925389;29;20203;-77
2023/03/31 06:33:54;;;;;;;51.23;47.87;;;9.30;99.90;;;;;;4930723;29;20210;-77
2023/03/31 06:36:23;;;;;;;43.13;40.27;;;9.40;99.90;;;;;;4931804;29;20183;-77
2023/03/31 06:38:50;;;;;;;30.70;28.30;;;9.40;99.90;;;;;;4907256;29;20249;-77
2023/03/31 06:41:17;;;;;;;13.63;11.83;;;9.40;99.90;;;;;;4913221;29;20351;-77
2023/03/31 06:43:43;;;;;;;23.30;21.20;;;9.40;99.90;;;;;;4908484;29;20190;-78
2023/03/31 06:46:09;;;;;;;24.30;22.60;;;9.40;99.90;;;;;;4919925;29;20238;-78
2023/03/31 06:48:35;;;;;;;41.47;38.03;;;9.40;99.90;;;;;;4901356;29;20478;-77
2023/03/31 06:51:03;;;;;;;69.60;64.67;;;9.50;99.90;;;;;;4920850;29;20262;-77
2023/03/31 06:53:29;;;;;;;30.00;27.83;;;9.50;99.90;;;;;;4901920;29;20211;-77
2023/03/31 06:55:55;;;;;;;182.90;171.57;;;9.50;99.90;;;;;;4919001;29;20190;-77
2023/03/31 06:58:21;;;;;;;105.60;98.63;;;9.50;99.90;;;;;;4921786;29;20199;-77
2023/03/31 07:00:47;;;;;;;60.97;56.67;;;9.50;99.90;;;;;;4901325;29;20242;-78
2023/03/31 07:03:15;;;;;;;74.93;70.43;;;9.50;99.90;;;;;;4916015;29;20334;-77
2023/03/31 07:05:41;;;;;;;69.17;64.47;;;9.40;99.90;;;;;;4915845;29;20678;-78
2023/03/31 07:08:07;;;;;;;100.63;93.70;;;9.40;99.90;;;;;;4898932;29;20191;-77
2023/03/31 07:10:32;;;;;;;112.13;104.23;;;9.50;99.90;;;;;;4898329;29;20214;-78
2023/03/31 07:12:58;;;;;;;74.43;70.23;;;9.50;99.90;;;;;;4915508;29;20226;-77
2023/03/31 07:15:27;;;;;;;213.53;201.43;;;9.50;99.90;;;;;;4898690;29;20233;-77
2023/03/31 07:18:01;;;;;;;122.73;115.00;;;9.50;99.90;;;;;;4898643;29;20187;-78
2023/03/31 07:20:28;;;;;;;117.00;109.53;;;9.50;99.90;;;;;;4897796;29;20631;-78
2023/03/31 07:22:54;;;;;;;53.63;49.73;;;9.50;99.90;;;;;;4916097;29;20182;-78
2023/03/31 07:25:20;;;;;;;34.70;32.10;;;9.50;99.90;;;;;;4899773;29;20371;-77
2023/03/31 07:27:46;;;;;;;55.23;52.30;;;9.60;99.90;;;;;;4900122;29;20652;-77
2023/03/31 07:30:15;;;;;;;130.73;123.37;;;9.70;99.90;;;;;;4900310;29;20253;-78
2023/03/31 07:32:41;;;;;;;38.40;35.60;;;9.80;99.90;;;;;;4907652;29;20219;-78
2023/03/31 07:35:09;;;;;;;70.77;66.47;;;9.80;99.90;;;;;;4925973;29;20194;-78
2023/03/31 07:37:40;;;;;;;27.20;25.27;;;9.90;99.90;;;;;;4922632;29;20190;-78
2023/03/31 07:40:07;;;;;;;59.93;56.67;;;10.00;99.90;;;;;;4901080;29;20187;-79
2023/03/31 07:42:34;;;;;;;22.57;21.07;;;10.10;99.90;;;;;;4902477;29;20787;-77
2023/03/31 07:45:00;;;;;;;18.23;16.50;;;10.10;99.90;;;;;;4930294;29;20213;-78
2023/03/31 07:47:26;;;;;;;21.73;20.20;;;10.20;99.90;;;;;;4913518;29;20198;-78
2023/03/31 07:49:52;;;;;;;26.33;24.30;;;10.30;99.90;;;;;;4928597;29;20253;-77
2023/03/31 07:52:18;;;;;;;26.93;25.03;;;10.30;99.90;;;;;;4911954;29;20211;-78
2023/03/31 07:54:45;;;;;;;34.73;32.73;;;10.30;99.90;;;;;;4908647;29;20187;-77
2023/03/31 07:57:11;;;;;;;45.70;42.87;;;10.40;99.90;;;;;;4909096;29;20190;-78
2023/03/31 07:59:37;;;;;;;54.53;51.60;;;10.40;99.90;;;;;;4904101;29;20538;-78
2023/03/31 08:02:03;;;;;;;34.03;31.73;;;10.60;99.90;;;;;;4920418;29;20221;-78
2023/03/31 08:04:29;;;;;;;97.63;92.63;;;10.90;99.90;;;;;;4919029;29;20222;-78
2023/03/31 08:06:55;;;;;;;8.87;8.03;;;11.00;99.90;;;;;;4905330;29;20239;-78
2023/03/31 08:09:21;;;;;;;27.03;24.87;;;11.10;99.90;;;;;;4926758;29;20215;-79
2023/03/31 08:11:47;;;;;;;26.10;24.13;;;11.20;99.90;;;;;;4904758;29;20207;-79
2023/03/31 08:14:13;;;;;;;43.57;41.03;;;11.20;99.90;;;;;;4921315;29;20239;-79
2023/03/31 08:16:39;;;;;;;12.23;11.07;;;11.30;99.90;;;;;;4920568;29;20190;-79
2023/03/31 08:19:05;;;;;;;18.00;16.73;;;11.40;99.90;;;;;;4902806;29;20187;-79
2023/03/31 08:21:31;;;;;;;25.17;23.97;;;11.60;99.90;;;;;;4903092;29;20210;-78
2023/03/31 08:23:57;;;;;;;12.57;11.93;;;12.20;99.90;;;;;;4903587;29;20187;-78
2023/03/31 08:26:24;;;;;;;17.63;16.77;;;12.30;99.90;;;;;;4903834;29;20227;-79
2023/03/31 08:28:51;;;;;;;16.97;16.17;;;12.50;99.90;;;;;;4904513;29;20466;-78
2023/03/31 08:31:19;;;;;;;19.93;18.90;;;12.90;99.90;;;;;;4923359;29;20672;-79
2023/03/31 08:33:45;;;;;;;12.53;11.90;;;13.20;99.90;;;;;;4908116;29;20211;-78
2023/03/31 08:36:12;;;;;;;10.77;10.13;;;13.40;99.90;;;;;;4926356;29;20183;-78
2023/03/31 08:38:44;;;;;;;10.53;10.03;;;13.90;99.90;;;;;;4910759;29;20197;-79
2023/03/31 08:41:52;;;;;;;8.60;8.10;;;14.30;99.90;;;;;;4909222;29;20802;-79
2023/03/31 08:44:28;;;;;;;8.43;8.03;;;14.90;99.90;;;;;;4908178;29;20665;-79
2023/03/31 08:46:56;;;;;;;11.37;10.77;;;15.10;99.90;;;;;;4906845;29;20191;-80
2023/03/31 08:49:24;;;;;;;9.37;8.87;;;15.40;99.90;;;;;;4906366;29;20549;-79
2023/03/31 08:51:58;;;;;;;8.97;8.23;;;15.60;99.90;;;;;;4908063;29;20218;-81
2023/03/31 08:54:45;;;;;;;8.60;7.90;;;15.70;99.90;;;;;;4925473;29;20230;-80
2023/03/31 08:57:18;;;;;;;5.97;5.47;;;15.80;99.90;;;;;;4914797;29;20183;-79
2023/03/31 08:59:45;;;;;;;5.50;5.03;;;15.90;99.90;;;;;;4920227;29;20310;-80
2023/03/31 09:02:33;;;;;;;4.67;4.37;;;15.90;99.90;;;;;;4924690;29;20222;-80
2023/03/31 09:05:05;;;;;;;4.67;4.37;;;16.20;99.90;;;;;;4906883;29;20187;-80
2023/03/31 09:07:54;;;;;;;7.27;6.90;;;16.70;99.90;;;;;;4906397;29;20238;-80
2023/03/31 09:10:35;;;;;;;6.87;6.37;;;16.90;99.90;;;;;;4905547;29;20187;-81
2023/03/31 09:13:29;;;;;;;4.97;4.67;;;16.50;99.90;;;;;;4907372;29;20254;-80
2023/03/31 09:16:07;;;;;;;6.93;6.53;;;16.60;99.90;;;;;;4923819;29;20179;-81
2023/03/31 09:18:35;;;;;;;8.77;8.27;;;17.00;99.90;;;;;;4905423;29;20190;-80
2023/03/31 09:21:15;;;;;;;26.00;24.80;;;17.20;99.90;;;;;;4921384;29;20238;-81
2023/03/31 09:23:56;;;;;;;24.53;23.40;;;17.00;99.90;;;;;;4904395;29;20191;-80
2023/03/31 09:26:33;;;;;;;24.47;23.13;;;16.90;99.90;;;;;;4921025;29;20198;-80
2023/03/31 09:29:02;;;;;;;26.23;24.93;;;16.90;99.90;;;;;;4903662;29;20187;-80
2023/03/31 09:31:31;;;;;;;52.47;49.77;;;17.30;99.90;;;;;;4903333;29;20211;-80
2023/03/31 09:34:00;;;;;;;46.93;44.57;;;17.60;99.90;;;;;;4903982;29;20301;-80
2023/03/31 09:36:27;;;;;;;22.03;20.87;;;17.80;99.90;;;;;;4920206;29;20187;-81
2023/03/31 09:38:53;;;;;;;14.67;13.87;;;17.80;99.90;;;;;;4909003;29;20159;-79
2023/03/31 09:41:19;;;;;;;23.60;22.47;;;17.20;99.90;;;;;;4920433;29;20192;-79
2023/03/31 09:43:46;;;;;;;28.00;26.07;;;17.10;99.90;;;;;;4916623;29;20199;-81
2023/03/31 09:46:38;;;;;;;20.10;18.87;;;17.20;99.90;;;;;;4925558;29;20254;-78
2023/03/31 09:49:11;;;;;;;17.47;16.37;;;17.20;99.90;;;;;;4937754;29;20195;-78
2023/03/31 09:51:43;;;;;;;21.00;19.70;;;17.00;99.90;;;;;;4917389;29;20199;-78
2023/03/31 09:54:23;;;;;;;23.57;22.27;;;16.50;99.90;;;;;;4918146;29;20215;-80
2023/03/31 09:56:54;;;;;;;30.33;28.70;;;15.80;99.90;;;;;;4911033;29;20262;-81
2023/03/31 09:59:32;;;;;;;33.30;31.63;;;15.40;99.90;;;;;;4906598;29;20190;-81
2023/03/31 10:02:01;;;;;;;7.53;7.07;;;15.10;99.90;;;;;;4905127;29;20245;-80
2023/03/31 10:04:45;;;;;;;7.03;6.03;;;14.80;99.90;;;;;;4903688;29;20266;-80
2023/03/31 10:07:11;;;;;;;3.90;3.60;;;14.70;99.90;;;;;;4903809;29;20194;-79
2023/03/31 10:09:38;;;;;;;8.50;5.53;;;14.20;99.90;;;;;;4919549;29;20187;-80
2023/03/31 10:12:06;;;;;;;22.53;20.97;;;13.60;99.90;;;;;;4902375;29;20271;-80
2023/03/31 10:14:50;;;;;;;9.30;8.60;;;13.40;99.90;;;;;;4902444;29;20301;-80
2023/03/31 10:17:18;;;;;;;5.80;5.23;;;14.00;99.90;;;;;;4919777;29;20187;-79
2023/03/31 10:19:52;;;;;;;5.57;4.30;;;14.40;99.90;;;;;;4902714;29;20612;-80
2023/03/31 10:22:20;;;;;;;8.97;4.60;;;14.60;99.90;;;;;;4919532;29;20209;-80
2023/03/31 10:24:47;;;;;;;20.47;19.27;;;15.30;99.90;;;;;;4902653;29;20270;-80
2023/03/31 10:27:24;;;;;;;59.47;56.30;;;15.50;99.90;;;;;;4919414;29;20651;-79
2023/03/31 10:29:59;;;;;;;12.83;12.10;;;16.20;99.90;;;;;;4902314;29;20200;-80
2023/03/31 10:32:31;;;;;;;12.97;12.20;;;16.30;99.90;;;;;;4918963;29;20198;-80
2023/03/31 10:35:02;;;;;;;12.70;11.87;;;16.50;99.90;;;;;;4906825;29;20618;-79
2023/03/31 10:37:30;;;;;;;23.53;22.13;;;16.60;99.90;;;;;;4908891;29;20270;-79
2023/03/31 10:39:58;;;;;;;14.67;13.97;;;16.80;99.90;;;;;;4929723;29;20361;-78
2023/03/31 10:42:26;;;;;;;5.93;5.20;;;17.30;99.90;;;;;;4921350;29;20186;-78
2023/03/31 10:45:10;;;;;;;8.90;8.20;;;17.50;99.90;;;;;;4924093;29;20194;-81
2023/03/31 10:47:39;;;;;;;10.07;9.33;;;17.30;99.90;;;;;;4930592;29;20187;-78
2023/03/31 10:50:13;;;;;;;8.43;7.63;;;17.10;99.90;;;;;;4917278;29;20191;-79
2023/03/31 10:52:48;;;;;;;11.20;10.33;;;17.00;99.90;;;;;;4916471;29;20245;-79
2023/03/31 10:55:25;;;;;;;12.47;11.40;;;16.90;99.90;;;;;;4929898;29;20197;-80
2023/03/31 10:58:29;;;;;;;13.03;11.63;;;17.00;99.90;;;;;;4927522;29;20187;-81
2023/03/31 11:01:13;;;;;;;13.60;12.13;;;16.90;99.90;;;;;;4913700;29;20226;-81
2023/03/31 11:03:57;;;;;;;9.03;8.50;;;16.50;99.90;;;;;;4924796;29;20217;-81
2023/03/31 11:06:56;;;;;;;14.80;13.77;;;16.10;99.90;;;;;;4920507;29;20218;-80
2023/03/31 11:09:36;;;;;;;12.20;11.43;;;15.80;99.90;;;;;;4905183;29;20195;-81
2023/03/31 11:12:05;;;;;;;13.70;12.83;;;15.80;99.90;;;;;;4922009;29;20219;-81
2023/03/31 11:14:39;;;;;;;11.23;10.33;;;15.90;99.90;;;;;;4920001;29;20711;-80
2023/03/31 11:17:19;;;;;;;14.23;13.20;;;16.10;99.90;;;;;;4920046;29;20201;-80
2023/03/31 11:19:54;;;;;;;9.40;8.20;;;16.30;99.90;;;;;;4902333;29;20242;-80
2023/03/31 11:22:39;;;;;;;9.10;8.37;;;16.30;99.90;;;;;;4919546;29;20206;-79
2023/03/31 11:25:13;;;;;;;10.83;9.77;;;16.30;99.90;;;;;;4901320;29;20183;-80
2023/03/31 11:28:16;;;;;;;17.20;16.23;;;16.20;99.90;;;;;;4918852;29;20285;-80
2023/03/31 11:31:35;;;;;;;8.30;7.70;;;15.80;99.90;;;;;;4900955;29;20279;-80
2023/03/31 11:34:18;;;;;;;12.07;10.87;;;15.40;99.90;;;;;;4913450;29;20271;-79
2023/03/31 11:37:20;;;;;;;11.77;10.80;;;15.10;99.90;;;;;;4901265;29;20190;-78
2023/03/31 11:39:49;;;;;;;466.33;432.27;;;14.50;99.90;;;;;;4903650;29;20216;-77
2023/03/31 11:42:20;;;;;;;350.13;326.23;;;13.00;99.90;;;;;;4902252;29;20231;-77
2023/03/31 11:44:53;;;;;;;38.93;36.97;;;10.30;99.90;;;;;;4903056;29;20194;-77
2023/03/31 11:47:24;;;;;;;86.47;81.63;;;9.40;99.90;;;;;;4918719;29;20245;-78
2023/03/31 11:49:59;;;;;;;254.63;239.70;;;9.10;99.90;;;;;;4899870;29;20206;-77
2023/03/31 11:52:36;;;;;;;37.17;35.37;;;9.10;99.90;;;;;;4899441;29;20418;-77
2023/03/31 11:55:17;;;;;;;14.10;13.23;;;9.00;99.90;;;;;;4901050;29;20194;-78
2023/03/31 11:58:07;;;;;;;19.03;17.97;;;9.10;99.90;;;;;;4917717;29;20228;-78
2023/03/31 12:01:28;;;;;;;50.57;47.77;;;9.10;99.90;;;;;;4899438;29;20223;-78
2023/03/31 12:04:10;;;;;;;33.63;31.97;;;9.20;99.90;;;;;;4844051;29;20195;-79
2023/03/31 12:06:41;;;;;;;13.73;13.10;;;9.30;99.90;;;;;;4844197;29;20193;-79
2023/03/31 12:09:12;;;;;;;8.73;8.37;;;9.30;99.90;;;;;;4885103;29;20667;-79
2023/03/31 12:12:04;;;;;;;54.73;52.03;;;9.50;99.90;;;;;;4921701;29;20225;-78
2023/03/31 12:14:33;;;;;;;53.57;50.97;;;9.70;99.90;;;;;;4918749;29;20313;-79
2023/03/31 12:17:11;;;;;;;19.37;18.40;;;10.00;99.90;;;;;;4900172;29;20183;-79
2023/03/31 12:19:49;;;;;;;10.53;10.00;;;10.50;99.90;;;;;;4900108;29;20183;-78
2023/03/31 12:22:22;;;;;;;33.60;31.40;;;11.10;99.90;;;;;;4901057;29;20239;-80
2023/03/31 12:24:50;;;;;;;12.80;11.60;;;12.50;99.90;;;;;;4917848;29;20643;-80
2023/03/31 12:27:31;;;;;;;10.20;9.20;;;14.10;99.90;;;;;;4901511;29;20233;-80
2023/03/31 12:30:00;;;;;;;19.80;18.80;;;15.40;99.90;;;;;;4902189;29;20190;-81
2023/03/31 12:32:32;;;;;;;12.47;11.87;;;16.20;99.90;;;;;;4904876;29;20226;-79
2023/03/31 12:35:23;;;;;;;6.00;5.50;;;16.60;99.90;;;;;;4903773;29;20656;-79
2023/03/31 12:38:00;;;;;;;5.37;5.03;;;16.70;99.90;;;;;;4896949;29;20234;-78
2023/03/31 12:40:38;;;;;;;7.80;7.17;;;16.40;99.90;;;;;;4928614;29;20281;-78
2023/03/31 12:43:23;;;;;;;3.93;3.80;;;16.80;99.90;;;;;;4922082;29;20338;-78
2023/03/31 12:46:07;;;;;;;6.17;5.67;;;16.20;99.90;;;;;;4907969;29;20194;-79
2023/03/31 12:49:11;;;;;;;5.57;5.27;;;16.30;99.90;;;;;;4908668;29;20191;-79
2023/03/31 12:52:09;;;;;;;30.93;29.47;;;17.60;99.90;;;;;;4885986;29;20219;-79
2023/03/31 12:54:41;;;;;;;39.73;37.80;;;17.60;99.90;;;;;;4904148;29;20211;-81
2023/03/31 12:57:07;;;;;;;39.10;37.10;;;17.30;99.90;;;;;;4902749;29;20194;-80
2023/03/31 12:59:38;;;;;;;35.77;34.07;;;17.20;99.90;;;;;;4901343;29;20187;-80
2023/03/31 13:02:10;;;;;;;18.13;17.33;;;17.40;99.90;;;;;;4901694;29;20223;-80
2023/03/31 13:04:37;;;;;;;15.43;14.60;;;17.40;99.90;;;;;;4918536;29;20188;-81
2023/03/31 13:07:04;;;;;;;11.40;10.80;;;17.80;99.90;;;;;;4901313;29;20218;-79
2023/03/31 13:09:30;;;;;;;11.93;11.40;;;17.60;99.90;;;;;;4900977;29;20195;-80
2023/03/31 13:11:56;;;;;;;13.80;13.20;;;17.00;99.90;;;;;;4902002;29;20250;-80
2023/03/31 13:14:30;;;;;;;17.37;16.47;;;16.90;99.90;;;;;;4900634;29;20616;-79
2023/03/31 13:17:28;;;;;;;14.63;13.97;;;16.50;99.90;;;;;;4918307;29;20183;-80
2023/03/31 13:19:56;;;;;;;13.37;12.57;;;16.00;99.90;;;;;;4903503;29;20242;-80
2023/03/31 13:22:35;;;;;;;22.00;20.90;;;15.90;99.90;;;;;;4903976;29;20342;-79
2023/03/31 13:25:28;;;;;;;22.00;20.80;;;16.40;99.90;;;;;;4905860;29;20690;-80
2023/03/31 13:28:08;;;;;;;27.50;26.10;;;16.70;99.90;;;;;;4912019;29;20194;-81
2023/03/31 13:30:42;;;;;;;27.00;25.03;;;16.10;99.90;;;;;;4910706;29;20207;-80
2023/03/31 13:33:14;;;;;;;22.47;20.87;;;15.00;99.90;;;;;;4909184;29;20214;-80
2023/03/31 13:35:46;;;;;;;17.67;16.43;;;14.30;99.90;;;;;;4923961;29;20183;-79
2023/03/31 13:38:45;;;;;;;37.13;35.10;;;14.00;99.90;;;;;;4913287;29;20198;-79
2023/03/31 13:41:39;;;;;;;43.00;40.77;;;13.60;99.90;;;;;;4930320;29;20239;-80
2023/03/31 13:44:29;;;;;;;29.33;27.27;;;13.40;99.90;;;;;;4923684;29;20193;-80
2023/03/31 13:47:14;;;;;;;16.93;15.97;;;13.20;99.90;;;;;;4922959;29;20191;-80
2023/03/31 13:50:03;;;;;;;3.97;3.77;;;13.00;99.90;;;;;;4927284;29;20193;-79
2023/03/31 13:52:55;;;;;;;4.30;4.00;;;12.80;99.90;;;;;;4931678;29;20266;-79
2023/03/31 13:55:42;;;;;;;9.50;8.77;;;12.60;99.90;;;;;;4931172;29;20168;-79
2023/03/31 13:58:20;;;;;;;13.20;12.50;;;12.60;99.90;;;;;;4929134;29;20187;-80
2023/03/31 14:01:11;;;;;;;8.23;7.53;;;12.70;99.90;;;;;;4905404;29;20226;-80
2023/03/31 14:04:11;;;;;;;8.83;8.33;;;12.60;99.90;;;;;;4906525;29;20195;-80
2023/03/31 14:06:48;;;;;;;11.73;11.17;;;12.70;99.90;;;;;;4920075;29;20195;-80
2023/03/31 14:09:45;;;;;;;3.73;3.63;;;12.40;99.90;;;;;;4919549;29;20809;-80
2023/03/31 14:12:30;;;;;;;4.73;4.33;;;12.00;99.90;;;;;;4919674;29;20591;-80
2023/03/31 14:14:56;;;;;;;5.10;4.87;;;11.90;99.90;;;;;;4922790;29;20198;-80
2023/03/31 14:17:35;;;;;;;4.63;4.33;;;11.90;99.90;;;;;;4904137;29;20553;-80
2023/03/31 14:20:24;;;;;;;4.10;4.00;;;11.80;99.90;;;;;;4905325;29;20298;-79
2023/03/31 14:22:50;;;;;;;4.87;4.67;;;11.70;99.90;;;;;;4908396;29;20198;-80
2023/03/31 14:25:40;;;;;;;11.57;10.37;;;11.70;99.90;;;;;;4908738;29;20193;-79
2023/03/31 14:28:11;;;;;;;6.43;6.03;;;11.70;99.90;;;;;;4902620;29;20195;-79
2023/03/31 14:30:41;;;;;;;14.33;13.70;;;11.80;99.90;;;;;;4910583;29;20377;-78
2023/03/31 14:33:17;;;;;;;6.03;5.83;;;12.10;99.90;;;;;;4905892;29;20770;-80
2023/03/31 14:36:09;;;;;;;3.73;3.63;;;13.20;99.90;;;;;;4902553;29;20600;-80
2023/03/31 14:38:34;;;;;;;3.30;3.10;;;15.30;99.90;;;;;;4918969;29;20197;-80
2023/03/31 14:41:02;;;;;;;21.87;20.87;;;17.10;99.90;;;;;;4902227;29;20234;-80
2023/03/31 14:43:34;;;;;;;7.97;7.67;;;17.70;99.90;;;;;;4919054;29;20191;-81
2023/03/31 14:46:05;;;;;;;23.60;22.37;;;19.00;99.90;;;;;;4919733;29;20183;-80
2023/03/31 14:48:43;;;;;;;7.23;7.03;;;18.90;99.90;;;;;;4902296;29;20599;-80
2023/03/31 14:51:11;;;;;;;6.07;5.67;;;17.50;99.90;;;;;;4902209;29;20210;-80
2023/03/31 14:53:36;;;;;;;24.57;23.20;;;16.20;99.90;;;;;;4918824;29;20245;-80
2023/03/31 14:56:08;;;;;;;10.40;10.00;;;16.30;99.90;;;;;;4919356;29;20668;-80
2023/03/31 14:58:41;;;;;;;5.13;4.90;;;16.50;99.90;;;;;;4918500;29;20215;-81
2023/03/31 15:01:08;;;;;;;6.30;6.10;;;16.90;99.90;;;;;;4902241;29;20270;-80
2023/03/31 15:03:40;;;;;;;11.63;11.13;;;17.30;99.90;;;;;;4902670;29;20187;-81
2023/03/31 15:06:06;;;;;;;10.00;9.60;;;17.40;99.90;;;;;;4918457;29;20187;-78
2023/03/31 15:08:35;;;;;;;13.90;13.17;;;16.90;99.90;;;;;;4918090;29;20206;-81
2023/03/31 15:11:07;;;;;;;11.40;10.90;;;16.60;99.90;;;;;;4920020;29;20262;-78
2023/03/31 15:13:32;;;;;;;11.63;11.10;;;16.90;99.90;;;;;;4902637;29;20222;-80
2023/03/31 15:15:59;;;;;;;10.30;9.90;;;17.30;99.90;;;;;;4901692;29;20179;-80
2023/03/31 15:18:26;;;;;;;13.83;13.17;;;17.70;99.90;;;;;;4918590;29;20212;-80
2023/03/31 15:20:52;;;;;;;8.13;7.60;;;17.60;99.90;;;;;;4904858;29;20231;-79
2023/03/31 15:23:26;;;;;;;6.27;5.97;;;17.90;99.90;;;;;;4906464;29;20187;-80
2023/03/31 15:26:07;;;;;;;5.00;4.70;;;18.30;99.90;;;;;;4906344;29;20187;-79
2023/03/31 15:28:41;;;;;;;6.03;5.70;;;18.10;99.90;;;;;;4918755;29;20585;-81
2023/03/31 15:31:08;;;;;;;5.43;5.13;;;18.20;99.90;;;;;;4902567;29;20640;-80
2023/03/31 15:33:39;;;;;;;5.53;5.33;;;18.10;99.90;;;;;;4902433;29;20215;-81
2023/03/31 15:36:07;;;;;;;6.80;6.43;;;17.40;99.90;;;;;;4918448;29;20180;-80
2023/03/31 15:38:32;;;;;;;13.73;12.83;;;16.30;99.90;;;;;;4901074;29;20663;-80
2023/03/31 15:40:59;;;;;;;27.60;26.30;;;15.60;99.90;;;;;;4900353;29;20257;-80
2023/03/31 15:43:29;;;;;;;93.20;88.80;;;15.10;99.90;;;;;;4901111;29;20187;-80
2023/03/31 15:46:00;;;;;;;49.90;47.17;;;15.00;99.90;;;;;;4902691;29;20191;-79
2023/03/31 15:48:33;;;;;;;24.70;23.60;;;14.70;99.90;;;;;;4910250;29;20189;-80
2023/03/31 15:51:12;;;;;;;15.37;14.67;;;14.40;99.90;;;;;;4914115;29;20215;-80
2023/03/31 15:53:47;;;;;;;13.40;12.70;;;15.00;99.90;;;;;;4905762;29;20203;-80
2023/03/31 15:56:33;;;;;;;37.00;35.10;;;16.10;99.90;;;;;;4907803;29;20193;-79
2023/03/31 15:59:04;;;;;;;43.07;40.97;;;16.10;99.90;;;;;;4919716;29;20183;-80
2023/03/31 16:01:34;;;;;;;28.30;26.93;;;15.30;99.90;;;;;;4900643;29;20225;-80